createdAt,value
2018-03-31T00:00:05.066Z,10.70
2018-03-31T00:02:32.874Z,9.70
2018-03-31T00:04:59.920Z,9.90
2018-03-31T00:07:26.982Z,9.30
2018-03-31T00:09:54.062Z,9.10
2018-03-31T00:12:21.122Z,8.80
2018-03-31T00:14:48.931Z,8.50
2018-03-31T00:17:15.996Z,9.43
2018-03-31T00:19:43.030Z,9.60
2018-03-31T00:22:10.103Z,10.17
2018-03-31T00:24:37.141Z,9.53
2018-03-31T00:27:04.211Z,9.90
2018-03-31T00:29:31.257Z,9.53
2018-03-31T00:31:58.325Z,8.90
2018-03-31T00:34:26.139Z,9.80
2018-03-31T00:36:53.197Z,8.57
2018-03-31T00:39:20.248Z,8.90
2018-03-31T00:41:47.326Z,9.27
2018-03-31T00:44:14.371Z,8.80
2018-03-31T00:46:41.406Z,9.40
2018-03-31T00:49:08.708Z,9.30
2018-03-31T00:51:35.778Z,9.80
2018-03-31T00:54:02.843Z,8.83
2018-03-31T00:56:29.882Z,8.63
2018-03-31T00:58:56.942Z,9.07
2018-03-31T01:01:24.045Z,8.60
2018-03-31T01:03:51.340Z,8.80
2018-03-31T01:06:18.587Z,8.80
2018-03-31T01:08:49.398Z,9.03
2018-03-31T01:11:16.455Z,9.20
2018-03-31T01:13:43.523Z,9.10
2018-03-31T01:16:10.556Z,8.50
2018-03-31T01:18:37.634Z,10.20
2018-03-31T01:21:04.686Z,9.90
2018-03-31T01:23:31.734Z,10.13
2018-03-31T01:25:58.820Z,9.87
2018-03-31T01:28:25.883Z,8.73
2018-03-31T01:30:52.952Z,9.00
2018-03-31T01:33:20.079Z,10.13
2018-03-31T01:35:47.150Z,11.47
2018-03-31T01:38:14.192Z,10.60
2018-03-31T01:40:41.255Z,11.27
2018-03-31T01:43:08.295Z,9.50
2018-03-31T01:45:35.355Z,11.03
2018-03-31T01:48:02.545Z,11.23
2018-03-31T01:50:29.636Z,12.00
2018-03-31T01:52:56.680Z,11.47
2018-03-31T01:55:23.756Z,12.10
2018-03-31T01:57:50.800Z,12.10
2018-03-31T02:00:17.866Z,12.47
2018-03-31T02:02:44.909Z,13.70
2018-03-31T02:05:11.981Z,13.50
2018-03-31T02:07:39.793Z,15.93
2018-03-31T02:10:06.951Z,15.63
2018-03-31T02:12:34.840Z,15.37
2018-03-31T02:15:01.906Z,16.00
2018-03-31T02:17:29.001Z,15.13
2018-03-31T02:19:56.064Z,16.10
2018-03-31T02:22:23.107Z,16.20
2018-03-31T02:24:50.176Z,16.77
2018-03-31T02:27:17.215Z,15.80
2018-03-31T02:29:44.286Z,15.90
2018-03-31T02:32:11.327Z,14.47
2018-03-31T02:34:38.410Z,14.00
2018-03-31T02:37:06.220Z,14.27
2018-03-31T02:39:33.307Z,13.37
2018-03-31T02:42:01.143Z,14.33
2018-03-31T02:44:28.209Z,14.07
2018-03-31T02:46:55.300Z,14.90
2018-03-31T02:49:22.331Z,14.20
2018-03-31T02:51:50.180Z,15.13
2018-03-31T02:54:18.007Z,14.77
2018-03-31T02:56:45.096Z,15.40
2018-03-31T02:59:12.145Z,15.60
2018-03-31T03:01:39.213Z,15.37
2018-03-31T03:04:07.015Z,15.30
2018-03-31T03:06:34.119Z,15.67
2018-03-31T03:09:01.938Z,15.00
2018-03-31T03:11:29.092Z,13.93
2018-03-31T03:13:56.130Z,15.20
2018-03-31T03:16:23.202Z,15.07
2018-03-31T03:18:50.251Z,14.40
2018-03-31T03:21:17.310Z,13.73
2018-03-31T03:23:44.346Z,14.73
2018-03-31T03:26:11.410Z,16.20
2018-03-31T03:28:38.463Z,15.57
2018-03-31T03:31:05.540Z,15.20
2018-03-31T03:33:32.591Z,15.50
2018-03-31T03:35:59.635Z,18.93
2018-03-31T03:38:26.698Z,17.13
2018-03-31T03:40:53.738Z,26.87
2018-03-31T03:43:20.813Z,19.63
2018-03-31T03:45:47.864Z,29.77
2018-03-31T03:48:15.418Z,26.40
2018-03-31T03:50:42.479Z,43.43
2018-03-31T03:53:09.538Z,19.80
2018-03-31T03:55:36.589Z,26.50
2018-03-31T03:58:04.458Z,17.47
2018-03-31T04:00:31.505Z,16.87
2018-03-31T04:02:58.570Z,16.07
2018-03-31T04:05:25.626Z,14.50
2018-03-31T04:07:53.474Z,15.63
2018-03-31T04:10:21.454Z,14.93
2018-03-31T04:12:49.285Z,16.00
2018-03-31T04:15:16.346Z,15.30
2018-03-31T04:17:43.386Z,15.73
2018-03-31T04:20:10.451Z,14.40
2018-03-31T04:22:37.487Z,19.60
2018-03-31T04:25:04.568Z,17.13
2018-03-31T04:27:32.387Z,21.33
2018-03-31T04:29:59.443Z,16.77
2018-03-31T04:32:26.486Z,16.73
2018-03-31T04:34:53.550Z,17.80
2018-03-31T04:37:20.590Z,18.03
2018-03-31T04:39:47.669Z,14.30
2018-03-31T04:42:14.710Z,14.50
2018-03-31T04:44:41.776Z,14.23
2018-03-31T04:47:09.590Z,22.17
2018-03-31T04:49:36.635Z,22.30
2018-03-31T04:52:03.715Z,17.23
2018-03-31T04:54:30.759Z,16.43
2018-03-31T04:56:57.833Z,27.53
2018-03-31T04:59:25.643Z,29.93
2018-03-31T05:01:52.707Z,22.27
2018-03-31T05:04:19.762Z,13.60
2018-03-31T05:06:46.846Z,12.97
2018-03-31T05:09:14.663Z,20.47
2018-03-31T05:11:41.738Z,21.87
2018-03-31T05:14:08.782Z,28.77
2018-03-31T05:16:35.850Z,26.03
2018-03-31T05:19:03.678Z,18.50
2018-03-31T05:21:30.754Z,18.03
2018-03-31T05:23:57.798Z,18.87
2018-03-31T05:26:24.865Z,19.40
2018-03-31T05:28:52.690Z,25.90
2018-03-31T05:31:19.759Z,20.37
2018-03-31T05:33:46.802Z,22.20
2018-03-31T05:36:13.875Z,21.70
2018-03-31T05:38:41.763Z,22.07
2018-03-31T05:41:08.837Z,32.67
2018-03-31T05:43:35.892Z,43.83
2018-03-31T05:46:02.949Z,37.43
2018-03-31T05:48:29.995Z,32.70
2018-03-31T05:50:57.075Z,32.73
2018-03-31T05:53:24.119Z,34.97
2018-03-31T05:55:51.180Z,33.77
2018-03-31T05:58:18.991Z,25.87
2018-03-31T06:00:46.072Z,33.90
2018-03-31T06:03:13.124Z,27.27
2018-03-31T06:05:40.186Z,34.10
2018-03-31T06:08:07.231Z,29.67
2018-03-31T06:10:34.284Z,25.37
2018-03-31T06:13:01.352Z,25.80
2018-03-31T06:15:29.153Z,33.90
2018-03-31T06:17:56.225Z,23.93
2018-03-31T06:20:23.274Z,24.30
2018-03-31T06:22:50.342Z,27.47
2018-03-31T06:25:17.395Z,28.10
2018-03-31T06:27:45.249Z,23.23
2018-03-31T06:30:12.286Z,23.40
2018-03-31T06:53:28.273Z,34.80
2018-03-31T06:55:55.315Z,51.13
2018-03-31T06:58:22.432Z,28.57
2018-03-31T07:00:49.438Z,38.30
2018-03-31T07:03:16.488Z,34.33
2018-03-31T07:05:43.560Z,27.90
2018-03-31T07:08:10.602Z,26.70
2018-03-31T07:10:37.676Z,29.87
2018-03-31T07:13:05.494Z,27.37
2018-03-31T07:15:32.610Z,28.90
2018-03-31T07:17:59.626Z,31.57
2018-03-31T07:20:26.698Z,32.77
2018-03-31T07:22:54.511Z,29.90
2018-03-31T07:25:21.666Z,32.67
2018-03-31T07:27:48.727Z,30.53
2018-03-31T07:30:15.791Z,23.60
2018-03-31T07:32:42.831Z,27.70
2018-03-31T07:35:09.870Z,31.53
2018-03-31T07:37:36.946Z,28.90
2018-03-31T07:40:03.985Z,32.00
2018-03-31T07:42:31.051Z,33.93
2018-03-31T07:44:58.870Z,47.87
2018-03-31T07:47:25.943Z,43.77
2018-03-31T07:49:52.987Z,29.27
2018-03-31T07:52:20.054Z,25.00
2018-03-31T07:54:47.867Z,47.10
2018-03-31T07:57:14.930Z,36.60
2018-03-31T07:59:41.969Z,20.37
2018-03-31T08:02:09.032Z,29.87
2018-03-31T08:04:36.065Z,32.93
2018-03-31T08:07:03.126Z,23.90
2018-03-31T08:09:30.176Z,26.40
2018-03-31T08:11:57.254Z,21.20
2018-03-31T08:14:24.298Z,31.40
2018-03-31T08:16:52.139Z,34.20
2018-03-31T08:19:19.183Z,30.40
2018-03-31T08:21:46.259Z,24.53
2018-03-31T08:24:13.303Z,30.67
2018-03-31T08:26:40.368Z,31.67
2018-03-31T08:29:08.182Z,29.10
2018-03-31T08:31:35.246Z,29.10
2018-03-31T08:34:02.296Z,22.47
2018-03-31T08:36:29.358Z,22.73
2018-03-31T08:38:56.399Z,29.23
2018-03-31T08:41:23.466Z,38.37
2018-03-31T08:43:50.519Z,44.03
2018-03-31T08:46:18.355Z,27.20
2018-03-31T08:48:45.413Z,37.13
2018-03-31T08:51:12.564Z,32.93
2018-03-31T08:53:39.681Z,34.43
2018-03-31T08:56:06.747Z,30.07
2018-03-31T08:58:34.566Z,30.60
2018-03-31T09:01:01.634Z,32.03
2018-03-31T09:03:28.674Z,27.90
2018-03-31T09:05:55.750Z,30.23
2018-03-31T09:08:22.795Z,28.80
2018-03-31T09:10:49.853Z,30.60
2018-03-31T09:13:16.885Z,31.13
2018-03-31T09:15:43.946Z,31.53
2018-03-31T09:18:10.983Z,34.80
2018-03-31T09:20:38.031Z,34.83
2018-03-31T09:23:05.097Z,33.37
2018-03-31T09:25:32.134Z,33.43
2018-03-31T09:27:59.203Z,32.90
2018-03-31T09:30:27.755Z,28.80
2018-03-31T09:32:54.833Z,28.23
2018-03-31T09:35:21.881Z,29.00
2018-03-31T09:37:48.995Z,26.97
2018-03-31T09:40:16.047Z,27.03
2018-03-31T09:42:43.116Z,29.50
2018-03-31T09:45:10.160Z,25.40
2018-03-31T09:47:37.226Z,28.20
2018-03-31T09:50:04.263Z,28.90
2018-03-31T09:52:31.331Z,27.17
2018-03-31T09:54:58.367Z,26.07
2018-03-31T09:57:25.435Z,24.03
2018-03-31T09:59:52.488Z,22.77
2018-03-31T10:02:20.318Z,22.10
2018-03-31T10:04:47.363Z,23.37
2018-03-31T10:07:14.451Z,22.50
2018-03-31T10:09:42.262Z,22.77
2018-03-31T10:12:09.344Z,26.03
2018-03-31T10:14:36.386Z,23.90
2018-03-31T10:17:03.479Z,24.40
2018-03-31T10:19:30.510Z,24.43
2018-03-31T10:21:58.367Z,24.60
2018-03-31T10:24:25.442Z,23.20
2018-03-31T10:26:52.494Z,24.40
2018-03-31T10:29:19.560Z,24.10
2018-03-31T10:31:46.600Z,31.03
2018-03-31T10:34:13.671Z,24.97
2018-03-31T10:36:40.710Z,23.77
2018-03-31T10:39:07.779Z,26.63
2018-03-31T10:41:34.818Z,23.30
2018-03-31T10:44:01.935Z,23.10
2018-03-31T10:46:28.969Z,25.20
2018-03-31T10:48:56.803Z,26.10
2018-03-31T10:51:23.841Z,25.50
2018-03-31T10:53:50.902Z,25.47
2018-03-31T10:56:17.945Z,25.10
2018-03-31T10:58:45.747Z,24.50
2018-03-31T11:01:13.575Z,23.67
2018-03-31T11:03:40.620Z,24.43
2018-03-31T11:06:07.691Z,23.00
2018-03-31T11:08:34.732Z,24.00
2018-03-31T11:11:01.805Z,19.17
2018-03-31T11:13:29.611Z,19.13
2018-03-31T11:15:56.672Z,18.97
2018-03-31T11:18:23.716Z,18.30
2018-03-31T11:20:51.554Z,15.93
2018-03-31T11:23:18.589Z,15.80
2018-03-31T11:25:45.653Z,15.70
2018-03-31T11:28:12.708Z,15.00
2018-03-31T11:30:39.789Z,16.03
2018-03-31T11:33:06.838Z,14.30
2018-03-31T11:35:33.906Z,15.67
2018-03-31T11:38:00.955Z,15.27
2018-03-31T11:40:28.758Z,14.17
2018-03-31T11:42:55.826Z,11.03
2018-03-31T11:45:22.860Z,10.33
2018-03-31T11:47:49.931Z,9.83
2018-03-31T11:50:17.742Z,9.10
2018-03-31T11:52:45.579Z,9.23
2018-03-31T11:55:12.678Z,8.40
2018-03-31T11:57:39.747Z,11.10
2018-03-31T12:00:06.792Z,8.63
2018-03-31T12:02:33.854Z,7.33
2018-03-31T12:05:00.903Z,4.13
2018-03-31T12:07:27.987Z,5.00
2018-03-31T12:09:55.051Z,5.90
2018-03-31T12:12:22.887Z,7.10
2018-03-31T12:14:49.922Z,7.77
2018-03-31T12:17:17.006Z,5.73
2018-03-31T12:19:44.810Z,3.90
2018-03-31T12:22:11.857Z,5.10
2018-03-31T12:24:38.923Z,4.10
2018-03-31T12:27:06.768Z,4.27
2018-03-31T12:29:33.810Z,4.50
2018-03-31T12:32:00.852Z,5.30
2018-03-31T12:34:28.692Z,3.70
2018-03-31T12:36:55.738Z,4.73
2018-03-31T12:39:23.566Z,3.90
2018-03-31T12:41:50.602Z,3.07
2018-03-31T12:44:17.665Z,3.97
2018-03-31T12:46:44.711Z,3.53
2018-03-31T12:49:12.552Z,4.87
2018-03-31T12:51:39.632Z,5.37
2018-03-31T12:54:06.719Z,3.20
2018-03-31T12:56:34.219Z,3.17
2018-03-31T12:59:01.292Z,4.57
2018-03-31T13:01:28.331Z,2.97
2018-03-31T13:03:55.402Z,3.80
2018-03-31T13:06:22.454Z,4.57
2018-03-31T13:08:49.521Z,2.93
2018-03-31T13:11:17.339Z,3.07
2018-03-31T13:13:44.378Z,5.30
2018-03-31T13:16:11.442Z,4.50
2018-03-31T13:18:38.483Z,4.93
2018-03-31T13:21:05.548Z,5.60
2018-03-31T13:23:32.596Z,5.27
2018-03-31T13:25:59.667Z,3.97
2018-03-31T13:28:27.482Z,5.30
2018-03-31T13:30:54.543Z,3.60
2018-03-31T13:33:21.589Z,3.80
2018-03-31T13:35:48.655Z,4.83
2018-03-31T13:38:15.695Z,4.00
2018-03-31T13:40:42.770Z,4.50
2018-03-31T13:43:09.811Z,3.87
2018-03-31T13:45:36.881Z,3.10
2018-03-31T13:48:04.691Z,3.17
2018-03-31T13:50:31.763Z,4.40
2018-03-31T13:52:58.802Z,3.90
2018-03-31T13:55:25.851Z,3.20
2018-03-31T13:57:52.960Z,5.13
2018-03-31T14:00:20.006Z,3.23
2018-03-31T14:02:47.074Z,3.13
2018-03-31T14:05:14.117Z,4.03
2018-03-31T14:07:41.186Z,3.27
2018-03-31T14:10:08.232Z,3.13
2018-03-31T14:12:35.323Z,4.07
2018-03-31T14:15:03.133Z,3.77
2018-03-31T14:17:30.356Z,4.20
2018-03-31T14:19:58.198Z,3.87
2018-03-31T14:22:25.259Z,2.83
2018-03-31T14:24:53.066Z,4.10
2018-03-31T14:27:20.130Z,4.40
2018-03-31T14:29:47.216Z,3.10
2018-03-31T14:32:15.095Z,3.90
2018-03-31T14:34:42.895Z,4.70
2018-03-31T14:37:09.959Z,3.00
2018-03-31T14:39:37.003Z,3.90
2018-03-31T14:42:04.073Z,2.83
2018-03-31T14:44:31.110Z,2.70
2018-03-31T14:46:58.220Z,2.83
2018-03-31T14:49:25.234Z,2.70
2018-03-31T14:51:53.067Z,3.23
2018-03-31T14:54:20.102Z,3.67
2018-03-31T14:56:47.171Z,3.13
2018-03-31T14:59:14.218Z,2.97
2018-03-31T15:01:41.262Z,2.70
2018-03-31T15:04:08.334Z,2.63
2018-03-31T15:06:35.370Z,2.70
2018-03-31T15:09:02.442Z,3.10
2018-03-31T15:11:30.255Z,3.00
2018-03-31T15:13:57.336Z,3.10
2018-03-31T15:16:24.381Z,3.10
2018-03-31T15:18:51.454Z,3.13
2018-03-31T15:21:19.276Z,3.10
2018-03-31T15:23:46.338Z,3.40
2018-03-31T15:26:13.374Z,3.17
2018-03-31T15:28:40.511Z,3.40
2018-03-31T15:31:07.528Z,3.30
2018-03-31T15:33:35.355Z,2.47
2018-03-31T15:36:02.409Z,2.53
2018-03-31T15:38:29.447Z,2.90
2018-03-31T15:40:56.518Z,3.07
2018-03-31T15:43:23.550Z,3.50
2018-03-31T15:45:50.614Z,3.13
2018-03-31T15:48:17.716Z,3.30
2018-03-31T15:50:45.507Z,3.30
2018-03-31T15:53:12.551Z,3.50
2018-03-31T15:55:39.625Z,3.03
2018-03-31T15:58:07.441Z,3.30
2018-03-31T16:00:34.511Z,3.70
2018-03-31T16:03:01.552Z,4.60
2018-03-31T16:05:28.614Z,3.47
2018-03-31T16:07:55.655Z,3.43
2018-03-31T16:10:22.722Z,3.20
2018-03-31T16:12:49.762Z,3.17
2018-03-31T16:15:16.847Z,3.60
2018-03-31T16:17:44.661Z,2.83
2018-03-31T16:20:11.737Z,3.27
2018-03-31T16:22:38.781Z,3.70
2018-03-31T16:25:05.831Z,4.07
2018-03-31T16:27:32.904Z,2.83
2018-03-31T16:30:00.718Z,2.90
2018-03-31T16:32:27.792Z,3.47
2018-03-31T16:34:54.832Z,2.87
2018-03-31T16:37:21.902Z,3.30
2018-03-31T16:39:49.702Z,2.90
2018-03-31T16:42:16.779Z,2.80
2018-03-31T16:44:43.826Z,3.20
2018-03-31T16:47:10.898Z,2.93
2018-03-31T16:49:37.938Z,2.80
2018-03-31T16:52:05.010Z,3.10
2018-03-31T16:54:32.821Z,2.40
2018-03-31T16:56:59.891Z,2.80
2018-03-31T16:59:26.936Z,2.70
2018-03-31T17:01:53.991Z,2.50
2018-03-31T17:04:21.072Z,2.77
2018-03-31T17:06:48.887Z,2.80
2018-03-31T17:09:15.957Z,2.73
2018-03-31T17:11:43.006Z,2.47
2018-03-31T17:14:10.083Z,2.93
2018-03-31T17:16:37.890Z,2.30
2018-03-31T17:19:04.954Z,2.73
2018-03-31T17:21:31.998Z,2.60
2018-03-31T17:23:59.062Z,2.50
2018-03-31T17:26:26.098Z,2.70
2018-03-31T17:28:53.166Z,2.80
2018-03-31T17:31:20.206Z,2.87
2018-03-31T17:33:47.284Z,2.93
2018-03-31T17:36:15.102Z,2.40
2018-03-31T17:38:42.167Z,2.63
2018-03-31T17:41:09.213Z,2.70
2018-03-31T17:43:36.263Z,2.77
2018-03-31T17:46:03.342Z,3.00
2018-03-31T17:48:31.154Z,2.40
2018-03-31T17:50:58.217Z,2.27
2018-03-31T17:53:25.267Z,2.30
2018-03-31T17:55:52.331Z,2.70
2018-03-31T17:58:19.375Z,2.83
2018-03-31T18:00:46.442Z,2.90
2018-03-31T18:03:13.486Z,2.67
2018-03-31T18:05:40.552Z,2.40
2018-03-31T18:08:08.374Z,2.43
2018-03-31T18:10:35.443Z,2.53
2018-03-31T18:13:02.486Z,2.90
2018-03-31T18:15:29.541Z,2.63
2018-03-31T18:17:56.606Z,2.77
2018-03-31T18:20:24.414Z,2.70
2018-03-31T18:22:51.479Z,4.23
2018-03-31T18:25:18.516Z,3.40
2018-03-31T18:27:45.580Z,3.00
2018-03-31T18:30:12.627Z,3.07
2018-03-31T18:32:39.708Z,3.40
2018-03-31T18:35:07.517Z,3.10
2018-03-31T18:37:34.575Z,3.47
2018-03-31T18:40:01.613Z,3.30
2018-03-31T18:42:29.437Z,3.20
2018-03-31T18:44:57.251Z,2.70
2018-03-31T18:47:24.299Z,2.70
2018-03-31T18:49:51.358Z,2.60
2018-03-31T18:52:18.400Z,2.40
2018-03-31T18:54:45.471Z,2.20
2018-03-31T18:57:12.514Z,2.47
2018-03-31T18:59:39.598Z,2.53
2018-03-31T19:02:08.424Z,3.00
2018-03-31T19:04:35.491Z,2.60
2018-03-31T19:07:02.532Z,2.40
2018-03-31T19:09:29.606Z,2.33
2018-03-31T19:11:56.643Z,3.03
2018-03-31T19:14:23.904Z,2.13
2018-03-31T19:16:56.699Z,2.37
2018-03-31T19:19:23.740Z,2.43
2018-03-31T19:21:50.808Z,2.77
2018-03-31T19:24:18.620Z,1.93
2018-03-31T19:26:45.688Z,2.87
2018-03-31T19:29:12.733Z,2.60
2018-03-31T19:31:39.803Z,2.23
2018-03-31T19:34:06.869Z,2.63
2018-03-31T19:36:34.695Z,2.50
2018-03-31T19:39:01.731Z,2.73
2018-03-31T19:41:28.801Z,2.57
2018-03-31T19:43:55.848Z,2.10
2018-03-31T19:46:22.896Z,2.93
2018-03-31T19:48:49.974Z,2.40
2018-03-31T19:51:17.785Z,2.43
2018-03-31T19:53:44.895Z,3.47
2018-03-31T19:56:11.911Z,3.00
2018-03-31T19:58:38.989Z,2.90
2018-03-31T20:01:06.800Z,3.00
2018-03-31T20:03:33.874Z,2.63
2018-03-31T20:06:00.915Z,2.80
2018-03-31T20:08:27.978Z,3.43
2018-03-31T20:10:55.019Z,3.03
2018-03-31T20:13:22.088Z,3.10
2018-03-31T20:15:49.902Z,2.70
2018-03-31T20:18:16.964Z,2.83
2018-03-31T20:20:44.004Z,2.93
2018-03-31T20:23:11.070Z,3.20
2018-03-31T20:25:38.135Z,3.43
2018-03-31T20:28:05.171Z,5.40
2018-03-31T20:30:32.247Z,4.20
2018-03-31T20:33:00.057Z,5.57
2018-03-31T20:35:27.122Z,5.93
2018-03-31T20:37:54.167Z,4.27
2018-03-31T20:40:22.021Z,3.90
2018-03-31T20:42:49.059Z,4.90
2018-03-31T20:45:16.132Z,4.30
2018-03-31T20:47:43.179Z,4.23
2018-03-31T20:50:10.241Z,5.10
2018-03-31T20:52:37.291Z,5.00
2018-03-31T20:55:04.365Z,11.27
2018-03-31T20:57:32.175Z,5.87
2018-03-31T20:59:59.239Z,5.43
2018-03-31T21:02:26.343Z,5.90
2018-03-31T21:04:54.224Z,6.27
2018-03-31T21:07:21.288Z,6.70
2018-03-31T21:09:48.325Z,7.20
2018-03-31T21:12:15.599Z,8.10
2018-03-31T21:14:42.725Z,7.77
2018-03-31T21:17:09.794Z,7.20
2018-03-31T21:19:36.832Z,7.90
2018-03-31T21:22:03.894Z,8.67
2018-03-31T21:24:30.943Z,9.10
2018-03-31T21:26:58.019Z,8.23
2018-03-31T21:29:25.119Z,7.10
2018-03-31T21:31:52.930Z,7.63
2018-03-31T21:34:19.975Z,8.47
2018-03-31T21:36:47.241Z,5.83
2018-03-31T21:39:14.328Z,6.10
2018-03-31T21:41:41.375Z,6.40
2018-03-31T21:44:08.673Z,5.07
2018-03-31T21:46:35.714Z,5.80
2018-03-31T21:49:02.782Z,7.37
2018-03-31T21:51:29.830Z,5.50
2018-03-31T21:53:56.891Z,6.50
2018-03-31T21:56:23.991Z,6.77
2018-03-31T21:58:51.050Z,7.60
2018-03-31T22:01:18.090Z,5.07
2018-03-31T22:03:45.201Z,4.53
2018-03-31T22:06:12.251Z,4.53
2018-03-31T22:08:40.083Z,3.93
2018-03-31T22:11:07.159Z,4.30
2018-03-31T22:13:40.577Z,5.33
2018-03-31T22:16:07.622Z,4.73
2018-03-31T22:18:34.654Z,4.60
2018-03-31T22:21:02.471Z,4.40
2018-03-31T22:23:29.515Z,6.03
2018-03-31T22:25:56.574Z,5.60
2018-03-31T22:28:23.616Z,4.70
2018-03-31T22:30:50.679Z,4.60
2018-03-31T22:33:17.716Z,5.67
2018-03-31T22:35:44.775Z,5.20
2018-03-31T22:38:11.823Z,5.53
2018-03-31T22:40:38.888Z,6.67
2018-03-31T22:43:14.063Z,6.93
2018-03-31T22:45:41.131Z,6.50
2018-03-31T22:48:08.174Z,6.50
2018-03-31T22:50:35.202Z,5.20
2018-03-31T22:53:08.738Z,5.30
2018-03-31T22:55:35.782Z,6.03
2018-03-31T22:58:02.916Z,5.23
2018-03-31T23:00:29.951Z,5.03
2018-03-31T23:02:57.011Z,4.33
2018-03-31T23:05:24.047Z,4.00
2018-03-31T23:07:51.158Z,4.43
2018-03-31T23:10:18.194Z,4.00
2018-03-31T23:12:45.254Z,3.93
2018-03-31T23:15:12.296Z,3.43
2018-03-31T23:17:39.350Z,2.90
2018-03-31T23:20:06.399Z,3.50
2018-03-31T23:22:33.442Z,3.00
2018-03-31T23:25:00.502Z,3.10
2018-03-31T23:27:28.354Z,2.90
2018-03-31T23:29:55.388Z,3.70
2018-03-31T23:32:39.510Z,3.37
2018-03-31T23:35:06.571Z,3.60
2018-03-31T23:37:33.606Z,3.30
2018-03-31T23:40:00.667Z,2.87
2018-03-31T23:42:27.703Z,3.33
2018-03-31T23:44:54.766Z,3.00
2018-03-31T23:47:21.815Z,3.20
2018-03-31T23:49:49.639Z,3.47
2018-03-31T23:52:16.682Z,3.67
2018-03-31T23:54:44.518Z,4.40
2018-03-31T23:57:11.556Z,4.50
2018-03-31T23:59:38.614Z,4.20
